Time;durP1;ratioP1;P1;durP2;ratioP2;P2;SDS_P1;SDS_P2;PMS_P1;PMS_P2;Temp;Humidity;BMP_temperature;BMP_pressure;BME280_temperature;BME280_humidity;BME280_pressure;Samples;Min_cycle;Max_cycle;Signal;HPM_P1;HPM_P2
2022/12/04 00:01:54;;;;;;;43.13;13.50;;;0.80;99.90;;;;;;5109219;28;20039;-78
2022/12/04 00:04:20;;;;;;;49.03;16.20;;;0.80;99.90;;;;;;5138771;28;20064;-82
2022/12/04 00:06:46;;;;;;;55.70;16.02;;;0.80;99.90;;;;;;5118293;28;20163;-79
2022/12/04 00:09:12;;;;;;;46.42;15.05;;;0.80;99.90;;;;;;5119415;28;20047;-82
2022/12/04 00:11:37;;;;;;;50.90;17.60;;;0.80;99.90;;;;;;5135849;28;20092;-81
2022/12/04 00:14:03;;;;;;;47.45;15.90;;;0.80;99.90;;;;;;5116271;28;20043;-80
2022/12/04 00:16:29;;;;;;;47.70;16.33;;;0.80;99.90;;;;;;5115977;28;20039;-80
2022/12/04 00:18:56;;;;;;;51.92;16.35;;;0.80;99.90;;;;;;5117853;28;20119;-80
2022/12/04 00:21:23;;;;;;;50.63;16.15;;;0.70;99.90;;;;;;5117958;28;20112;-81
2022/12/04 00:23:49;;;;;;;51.80;16.77;;;0.70;99.90;;;;;;5117359;28;20470;-80
2022/12/04 00:26:21;;;;;;;51.20;17.30;;;0.80;99.90;;;;;;5134663;28;20043;-81
2022/12/04 00:28:48;;;;;;;38.67;13.98;;;0.70;99.90;;;;;;5137357;28;20051;-81
2022/12/04 00:31:17;;;;;;;53.75;16.90;;;0.80;99.90;;;;;;5119026;28;20043;-79
2022/12/04 00:33:43;;;;;;;51.58;17.92;;;0.70;99.90;;;;;;5140680;27;20039;-78
2022/12/04 00:36:12;;;;;;;51.50;16.70;;;0.70;99.90;;;;;;5142456;27;20126;-80
2022/12/04 00:38:39;;;;;;;54.30;17.73;;;0.70;99.90;;;;;;5126302;27;20043;-81
2022/12/04 00:41:07;;;;;;;54.17;18.70;;;0.70;99.90;;;;;;5145083;27;20100;-81
2022/12/04 00:43:33;;;;;;;47.83;17.00;;;0.70;99.90;;;;;;5145155;27;20098;-81
2022/12/04 00:45:58;;;;;;;49.45;16.85;;;0.70;99.90;;;;;;5126041;27;20070;-81
2022/12/04 00:48:24;;;;;;;54.20;18.27;;;0.70;99.90;;;;;;5125864;27;20106;-80
2022/12/04 00:50:50;;;;;;;49.28;17.25;;;0.70;99.90;;;;;;5090388;27;20076;-81
2022/12/04 00:53:16;;;;;;;46.92;15.68;;;0.70;99.90;;;;;;5139213;27;20403;-80
2022/12/04 00:55:42;;;;;;;50.72;16.23;;;0.80;99.90;;;;;;5102515;27;20051;-80
2022/12/04 00:58:09;;;;;;;52.50;17.73;;;0.80;99.90;;;;;;5136942;27;20058;-79
2022/12/04 01:00:37;;;;;;;50.88;17.40;;;0.80;99.90;;;;;;5102215;27;20051;-80
2022/12/04 01:03:03;;;;;;;52.40;16.30;;;0.70;99.90;;;;;;5118644;27;20145;-81
2022/12/04 01:05:29;;;;;;;52.58;16.90;;;0.70;99.90;;;;;;5136813;27;20471;-81
2022/12/04 01:07:55;;;;;;;50.40;16.05;;;0.80;99.90;;;;;;5137141;27;20039;-79
2022/12/04 01:10:20;;;;;;;55.35;20.23;;;0.70;99.90;;;;;;5068112;27;20046;-80
2022/12/04 01:12:52;;;;;;;55.03;19.73;;;0.70;99.90;;;;;;5118730;27;20046;-81
2022/12/04 01:15:18;;;;;;;53.58;18.17;;;0.70;99.90;;;;;;5137242;27;20074;-82
2022/12/04 01:17:44;;;;;;;54.60;18.38;;;0.70;99.90;;;;;;5119205;27;20123;-83
2022/12/04 01:20:12;;;;;;;50.15;17.20;;;0.70;99.90;;;;;;5101508;27;20050;-81
2022/12/04 01:22:38;;;;;;;49.70;16.35;;;0.70;99.90;;;;;;5102162;27;20039;-81
2022/12/04 01:25:04;;;;;;;49.42;16.52;;;0.80;99.90;;;;;;5118563;27;20058;-81
2022/12/04 01:27:30;;;;;;;51.42;16.20;;;0.70;99.90;;;;;;5118314;27;20074;-79
2022/12/04 01:29:55;;;;;;;52.45;17.10;;;0.70;99.90;;;;;;5136659;27;20495;-81
2022/12/04 01:32:21;;;;;;;53.28;17.27;;;0.80;99.90;;;;;;5118341;27;20039;-82
2022/12/04 01:34:47;;;;;;;56.45;18.80;;;0.70;99.90;;;;;;5136268;27;20524;-80
2022/12/04 01:37:13;;;;;;;58.25;19.27;;;0.70;99.90;;;;;;5118372;27;20081;-80
2022/12/04 01:39:38;;;;;;;55.63;17.65;;;0.70;99.90;;;;;;5118017;27;20035;-81
2022/12/04 01:42:04;;;;;;;58.10;18.33;;;0.80;99.90;;;;;;5136483;27;20102;-79
2022/12/04 01:44:31;;;;;;;52.40;16.80;;;0.70;99.90;;;;;;5117661;28;20039;-79
2022/12/04 01:47:00;;;;;;;52.63;17.70;;;0.80;99.90;;;;;;5136425;27;20043;-81
2022/12/04 01:49:45;;;;;;;51.22;17.35;;;0.80;99.90;;;;;;5118097;27;20498;-79
2022/12/04 01:52:23;;;;;;;56.25;18.58;;;0.80;99.90;;;;;;5118254;27;20070;-81
2022/12/04 01:54:54;;;;;;;54.40;17.10;;;0.80;99.90;;;;;;5137318;27;20170;-81
2022/12/04 01:57:29;;;;;;;;;;;0.80;99.90;;;;;;5137368;27;20138;-79
2022/12/04 02:00:03;;;;;;;49.22;16.02;;;0.70;99.90;;;;;;5121355;27;19923;-80
2022/12/04 02:02:33;;;;;;;48.40;16.52;;;0.70;99.90;;;;;;5139800;27;20470;-80
2022/12/04 02:05:01;;;;;;;48.78;16.67;;;0.80;99.90;;;;;;5137666;27;20039;-81
2022/12/04 02:07:27;;;;;;;54.65;18.08;;;0.70;99.90;;;;;;5118250;27;20054;-82
2022/12/04 02:09:54;;;;;;;56.75;18.67;;;0.80;99.90;;;;;;5117592;27;20039;-80
2022/12/04 02:12:35;;;;;;;53.70;17.38;;;0.70;99.90;;;;;;5118156;27;20045;-81
2022/12/04 02:15:27;;;;;;;59.50;19.70;;;0.70;99.90;;;;;;5118211;27;20042;-81
2022/12/04 02:18:10;;;;;;;54.10;18.77;;;0.80;99.90;;;;;;5081777;27;20047;-82
2022/12/04 02:21:15;;;;;;;53.88;18.42;;;0.80;99.90;;;;;;5117690;27;20042;-82
2022/12/04 02:23:58;;;;;;;61.45;18.92;;;0.70;99.90;;;;;;5117955;27;20047;-81
2022/12/04 02:26:39;;;;;;;57.47;17.20;;;0.60;99.90;;;;;;5136003;27;20443;-82
2022/12/04 02:29:05;;;;;;;58.65;20.08;;;0.60;99.90;;;;;;5136256;27;20089;-81
2022/12/04 02:31:36;;;;;;;57.33;19.40;;;0.60;99.90;;;;;;5137100;27;20466;-80
2022/12/04 02:34:08;;;;;;;52.90;17.50;;;0.70;99.90;;;;;;5101013;27;20043;-78
2022/12/04 02:36:44;;;;;;;55.88;17.52;;;0.70;99.90;;;;;;5118217;27;20043;-81
2022/12/04 02:39:22;;;;;;;57.20;18.57;;;0.70;99.90;;;;;;5136833;27;20316;-83
2022/12/04 02:42:01;;;;;;;53.05;17.08;;;0.70;99.90;;;;;;5136823;27;20268;-83
2022/12/04 02:44:36;;;;;;;56.53;20.02;;;0.70;99.90;;;;;;5085489;27;20132;-81
2022/12/04 02:47:08;;;;;;;54.42;17.77;;;0.70;99.90;;;;;;5121121;27;20055;-81
2022/12/04 02:49:41;;;;;;;62.22;19.70;;;0.70;99.90;;;;;;5148549;27;20062;-80
2022/12/04 02:52:11;;;;;;;54.45;17.95;;;0.60;99.90;;;;;;5144512;27;20043;-84
2022/12/04 02:54:45;;;;;;;59.38;19.50;;;0.70;99.90;;;;;;5117730;27;20414;-82
2022/12/04 02:57:18;;;;;;;59.38;18.23;;;0.70;99.90;;;;;;5115948;27;20099;-79
2022/12/04 02:59:46;;;;;;;63.33;19.13;;;0.60;99.90;;;;;;5117318;27;20092;-82
2022/12/04 03:02:35;;;;;;;57.60;20.55;;;0.60;99.90;;;;;;5116575;27;20379;-81
2022/12/04 03:05:08;;;;;;;55.42;18.90;;;0.70;99.90;;;;;;5134303;27;20047;-81
2022/12/04 03:07:49;;;;;;;59.92;19.58;;;0.60;99.90;;;;;;5118048;27;20117;-81
2022/12/04 03:10:21;;;;;;;59.50;19.98;;;0.60;99.90;;;;;;5134146;27;20534;-79
2022/12/04 03:12:52;;;;;;;59.22;19.80;;;0.60;99.90;;;;;;5135477;27;20458;-79
2022/12/04 03:16:10;;;;;;;58.35;19.55;;;0.70;99.90;;;;;;5116400;27;20051;-81
2022/12/04 03:18:47;;;;;;;56.45;18.52;;;0.60;99.90;;;;;;5100261;27;20129;-80
2022/12/04 03:21:20;;;;;;;56.60;18.02;;;0.60;99.90;;;;;;5116464;27;20522;-80
2022/12/04 03:23:55;;;;;;;53.25;17.33;;;0.60;99.90;;;;;;5117419;28;20039;-81
2022/12/04 03:26:42;;;;;;;53.85;17.98;;;0.70;99.90;;;;;;5117076;27;20125;-79
2022/12/04 03:29:21;;;;;;;56.83;18.58;;;0.70;99.90;;;;;;5117227;27;20051;-79
2022/12/04 03:32:06;;;;;;;56.42;18.13;;;0.60;99.90;;;;;;5116998;27;20031;-80
2022/12/04 03:34:40;;;;;;;61.20;20.52;;;0.60;99.90;;;;;;5116608;28;20039;-79
2022/12/04 03:37:22;;;;;;;59.70;20.50;;;0.70;99.90;;;;;;5134164;28;20091;-81
2022/12/04 03:40:06;;;;;;;56.50;19.63;;;0.70;99.90;;;;;;5134957;28;20419;-78
2022/12/04 03:42:46;;;;;;;55.28;18.60;;;0.60;99.90;;;;;;5116832;28;20054;-80
2022/12/04 03:45:23;;;;;;;60.42;19.80;;;0.60;99.90;;;;;;5099739;28;20082;-81
2022/12/04 03:48:05;;;;;;;54.92;17.77;;;0.60;99.90;;;;;;5116479;28;20047;-82
2022/12/04 03:50:41;;;;;;;63.72;19.25;;;0.70;99.90;;;;;;5135378;28;20082;-82
2022/12/04 03:53:16;;;;;;;61.38;17.85;;;0.70;99.90;;;;;;5100295;28;20092;-81
2022/12/04 03:55:51;;;;;;;59.30;19.45;;;0.70;99.90;;;;;;5117366;28;20078;-81
2022/12/04 03:58:22;;;;;;;;;;;0.70;99.90;;;;;;5118753;28;20057;-80
2022/12/04 04:00:51;;;;;;;58.22;18.60;;;0.70;99.90;;;;;;5117081;28;20324;-81
2022/12/04 04:03:21;;;;;;;59.58;18.85;;;0.80;99.90;;;;;;5135464;28;20421;-83
2022/12/04 04:05:53;;;;;;;54.38;18.30;;;0.70;99.90;;;;;;5117257;28;20362;-82
2022/12/04 04:08:28;;;;;;;55.97;18.05;;;0.80;99.90;;;;;;5118327;27;20292;-82
2022/12/04 04:11:12;;;;;;;59.17;19.70;;;0.70;99.90;;;;;;5121520;27;20099;-80
2022/12/04 04:25:19;;;;;;;58.63;17.52;;;0.70;99.90;;;;;;5151621;27;20054;-81
2022/12/04 04:27:57;;;;;;;60.85;19.27;;;0.70;99.90;;;;;;5132433;27;20047;-80
2022/12/04 04:30:28;;;;;;;58.78;19.48;;;0.70;99.90;;;;;;5153668;27;20139;-81
2022/12/04 04:32:58;;;;;;;61.92;19.73;;;0.70;99.90;;;;;;5153522;27;20046;-80
2022/12/04 04:35:42;;;;;;;63.03;19.55;;;0.70;99.90;;;;;;5112541;27;20043;-81
2022/12/04 04:38:20;;;;;;;59.22;17.77;;;0.70;99.90;;;;;;5139393;27;20126;-81
2022/12/04 04:41:08;;;;;;;56.03;18.65;;;0.70;99.90;;;;;;5141136;27;20413;-81
2022/12/04 04:43:50;;;;;;;63.63;20.67;;;0.70;99.90;;;;;;5120130;27;20039;-81
2022/12/04 04:46:27;;;;;;;59.47;19.00;;;0.60;99.90;;;;;;5120964;27;20058;-80
2022/12/04 04:48:56;;;;;;;54.05;19.02;;;0.70;99.90;;;;;;5103373;27;20361;-82
2022/12/04 04:51:23;;;;;;;62.13;19.92;;;0.70;99.90;;;;;;5119588;27;20370;-81
2022/12/04 04:53:53;;;;;;;61.00;19.80;;;0.70;99.90;;;;;;5085641;27;20071;-81
2022/12/04 04:56:20;;;;;;;55.83;18.77;;;0.60;99.90;;;;;;5120362;27;20046;-80
2022/12/04 04:58:46;;;;;;;62.35;20.42;;;0.70;99.90;;;;;;5119541;27;20456;-82
2022/12/04 05:01:18;;;;;;;60.90;19.35;;;0.70;99.90;;;;;;5119601;27;20035;-82
2022/12/04 05:03:44;;;;;;;56.72;19.85;;;0.60;99.90;;;;;;5121080;27;20074;-80
2022/12/04 05:06:10;;;;;;;56.83;18.75;;;0.60;99.90;;;;;;5137871;27;20058;-81
2022/12/04 05:08:36;;;;;;;60.30;19.50;;;0.70;99.90;;;;;;5138142;27;20043;-79
2022/12/04 05:11:03;;;;;;;57.92;17.70;;;0.70;99.90;;;;;;5137837;27;20125;-79
2022/12/04 05:13:30;;;;;;;57.78;17.95;;;0.70;99.90;;;;;;5118210;27;20082;-81
2022/12/04 05:16:09;;;;;;;57.67;18.33;;;0.70;99.90;;;;;;5118888;27;20467;-80
2022/12/04 05:18:34;;;;;;;57.60;18.35;;;0.60;99.90;;;;;;5138318;27;20047;-83
2022/12/04 05:21:18;;;;;;;61.13;19.90;;;0.60;99.90;;;;;;5119111;27;20062;-81
2022/12/04 05:23:43;;;;;;;57.03;18.60;;;0.60;99.90;;;;;;5120076;27;20066;-82
2022/12/04 05:26:10;;;;;;;55.95;19.55;;;0.60;99.90;;;;;;5137874;27;20047;-80
2022/12/04 05:28:36;;;;;;;55.77;16.77;;;0.60;99.90;;;;;;5122119;27;20475;-81
2022/12/04 05:31:03;;;;;;;56.67;18.92;;;0.60;99.90;;;;;;5112176;27;20307;-79
2022/12/04 05:33:29;;;;;;;61.45;20.95;;;0.70;99.90;;;;;;5141817;27;20061;-81
2022/12/04 05:36:00;;;;;;;56.85;19.08;;;0.70;99.90;;;;;;5141843;27;20046;-84
2022/12/04 05:38:26;;;;;;;48.05;14.82;;;0.60;99.90;;;;;;5146239;27;20499;-80
2022/12/04 05:40:51;;;;;;;62.20;19.30;;;0.70;99.90;;;;;;5135439;27;20078;-79
2022/12/04 05:43:17;;;;;;;56.75;18.85;;;0.70;99.90;;;;;;5125376;27;20092;-78
2022/12/04 05:45:43;;;;;;;54.15;16.75;;;0.70;99.90;;;;;;5145057;27;20077;-77
2022/12/04 05:48:09;;;;;;;56.10;17.38;;;0.70;99.90;;;;;;5147137;27;20043;-82
2022/12/04 05:50:36;;;;;;;58.13;18.40;;;0.70;99.90;;;;;;5092904;27;20051;-81
2022/12/04 05:53:02;;;;;;;;;;;0.70;99.90;;;;;;5094412;27;20201;-78
2022/12/04 05:55:28;;;;;;;54.35;17.20;;;0.70;99.90;;;;;;5128943;27;19920;-78
2022/12/04 05:57:53;;;;;;;57.67;18.35;;;0.60;99.90;;;;;;5125190;27;20051;-81
2022/12/04 06:00:19;;;;;;;57.67;18.35;;;0.60;99.90;;;;;;5143089;27;20054;-80
2022/12/04 06:02:45;;;;;;;61.33;19.00;;;0.60;99.90;;;;;;5105919;27;20047;-79
2022/12/04 06:05:11;;;;;;;57.92;18.10;;;0.60;99.90;;;;;;5140282;27;20119;-81
2022/12/04 06:07:37;;;;;;;55.65;18.40;;;0.60;99.90;;;;;;5139495;27;20089;-81
2022/12/04 06:10:04;;;;;;;54.22;18.75;;;0.60;99.90;;;;;;5141910;27;20047;-78
2022/12/04 06:12:29;;;;;;;56.20;17.58;;;0.60;99.90;;;;;;5124877;27;20051;-80
2022/12/04 06:14:55;;;;;;;57.75;19.67;;;0.60;99.90;;;;;;5124981;27;20039;-78
2022/12/04 06:17:21;;;;;;;59.45;18.88;;;0.60;99.90;;;;;;5123145;27;20035;-81
2022/12/04 06:19:47;;;;;;;56.63;18.65;;;0.60;99.90;;;;;;5140840;27;20043;-81
2022/12/04 06:22:13;;;;;;;56.30;17.60;;;0.60;99.90;;;;;;5142159;27;20054;-80
2022/12/04 06:24:39;;;;;;;55.70;18.48;;;0.70;99.90;;;;;;5094031;27;20043;-81
2022/12/04 06:27:05;;;;;;;65.32;19.90;;;0.70;99.90;;;;;;5125112;27;20053;-80
2022/12/04 06:29:31;;;;;;;58.97;18.45;;;0.70;99.90;;;;;;5125659;27;20078;-80
2022/12/04 06:31:57;;;;;;;60.28;19.98;;;0.70;99.90;;;;;;5125894;27;20040;-80
2022/12/04 06:34:22;;;;;;;58.95;19.13;;;0.60;99.90;;;;;;5107368;27;20073;-79
2022/12/04 06:36:48;;;;;;;61.38;20.00;;;0.70;99.90;;;;;;5126248;27;20472;-79
2022/12/04 06:39:14;;;;;;;62.75;19.58;;;0.70;99.90;;;;;;5125146;27;20043;-79
2022/12/04 06:41:40;;;;;;;55.28;18.48;;;0.70;99.90;;;;;;5091863;27;20039;-78
2022/12/04 06:44:06;;;;;;;60.17;19.75;;;0.60;99.90;;;;;;5142722;27;20054;-79
2022/12/04 06:46:32;;;;;;;53.13;18.08;;;0.60;99.90;;;;;;5108734;27;20133;-81
2022/12/04 06:49:00;;;;;;;48.97;17.15;;;0.60;99.90;;;;;;5143631;27;20043;-80
2022/12/04 06:51:37;;;;;;;67.38;20.83;;;0.70;99.90;;;;;;5123126;27;20047;-79
2022/12/04 06:54:03;;;;;;;56.20;18.13;;;0.60;99.90;;;;;;5124356;27;20066;-79
2022/12/04 06:56:31;;;;;;;55.83;18.85;;;0.60;99.90;;;;;;5126656;27;20046;-80
2022/12/04 06:58:58;;;;;;;55.92;18.13;;;0.70;99.90;;;;;;5124416;27;20082;-79
2022/12/04 07:01:27;;;;;;;59.28;18.15;;;0.60;99.90;;;;;;5143059;27;20045;-79
2022/12/04 07:03:54;;;;;;;56.08;17.63;;;0.70;99.90;;;;;;5121950;27;20043;-80
2022/12/04 07:06:31;;;;;;;;;;;0.60;99.90;;;;;;5092008;27;20051;-79
2022/12/04 07:09:22;;;;;;;57.35;18.25;;;0.70;99.90;;;;;;5121381;27;19984;-80
2022/12/04 07:11:48;;;;;;;52.47;17.63;;;0.60;99.90;;;;;;5103852;27;20051;-78
2022/12/04 07:14:14;;;;;;;50.83;16.88;;;0.60;99.90;;;;;;5118634;27;20195;-77
2022/12/04 07:16:41;;;;;;;57.75;18.05;;;0.60;99.90;;;;;;5117359;27;20126;-80
2022/12/04 07:19:30;;;;;;;59.92;20.10;;;0.50;99.90;;;;;;5102923;27;20058;-81
2022/12/04 07:22:07;;;;;;;58.45;19.55;;;0.50;99.90;;;;;;5102256;27;20054;-78
2022/12/04 07:24:36;;;;;;;49.70;15.45;;;0.50;99.90;;;;;;5118441;27;20043;-82
2022/12/04 07:27:03;;;;;;;53.42;16.48;;;0.60;99.90;;;;;;5101410;27;20074;-79
2022/12/04 07:29:29;;;;;;;55.33;18.70;;;0.60;99.90;;;;;;5084849;28;20051;-80
2022/12/04 07:31:58;;;;;;;53.70;17.08;;;0.60;99.90;;;;;;5118886;27;20483;-80
2022/12/04 07:34:23;;;;;;;56.28;18.30;;;0.50;99.90;;;;;;5101090;28;20134;-80
2022/12/04 07:36:49;;;;;;;58.75;17.88;;;0.60;99.90;;;;;;5117610;28;20524;-79
2022/12/04 07:39:15;;;;;;;54.20;18.25;;;0.60;99.90;;;;;;5100473;28;20047;-79
2022/12/04 07:41:41;;;;;;;55.42;18.73;;;0.60;99.90;;;;;;5099980;28;20043;-80
2022/12/04 07:44:10;;;;;;;55.63;18.42;;;0.60;99.90;;;;;;5137914;27;20156;-79
2022/12/04 07:46:35;;;;;;;55.65;17.38;;;0.50;99.90;;;;;;5088622;27;20478;-80
2022/12/04 07:49:04;;;;;;;51.90;16.55;;;0.60;99.90;;;;;;5121812;27;20131;-78
2022/12/04 07:51:30;;;;;;;54.45;16.58;;;0.60;99.90;;;;;;5104324;27;20079;-78
2022/12/04 07:53:58;;;;;;;57.95;21.17;;;0.50;99.90;;;;;;5120206;27;20039;-77
2022/12/04 07:56:25;;;;;;;60.53;19.17;;;0.40;99.90;;;;;;5120004;27;20043;-77
2022/12/04 07:58:51;;;;;;;56.58;18.60;;;0.40;99.90;;;;;;5099289;28;20146;-77
2022/12/04 08:01:22;;;;;;;56.55;17.30;;;0.50;99.90;;;;;;5116401;28;20185;-77
2022/12/04 08:03:51;;;;;;;58.38;18.35;;;0.50;99.90;;;;;;5118464;28;20055;-79
2022/12/04 08:06:20;;;;;;;50.72;16.85;;;0.50;99.90;;;;;;5116653;28;20043;-78
2022/12/04 08:08:47;;;;;;;54.40;16.83;;;0.60;99.90;;;;;;5116899;28;20071;-78
2022/12/04 08:11:16;;;;;;;57.17;18.02;;;0.60;99.90;;;;;;5118405;28;20079;-80
2022/12/04 08:13:42;;;;;;;54.17;17.60;;;0.70;99.90;;;;;;5119728;28;20149;-78
2022/12/04 08:16:11;;;;;;;55.67;17.90;;;0.60;99.90;;;;;;5086627;28;20047;-79
2022/12/04 08:18:39;;;;;;;56.35;17.90;;;0.60;99.90;;;;;;5105946;28;20491;-83
2022/12/04 08:21:09;;;;;;;57.25;17.73;;;0.60;99.90;;;;;;5121717;28;20051;-78
2022/12/04 08:23:35;;;;;;;54.47;17.27;;;0.70;99.90;;;;;;5104697;28;20055;-77
2022/12/04 08:26:01;;;;;;;56.05;17.98;;;0.70;99.90;;;;;;5124996;28;20040;-75
2022/12/04 08:28:27;;;;;;;55.30;18.92;;;0.70;99.90;;;;;;5134153;28;20048;-79
2022/12/04 08:30:53;;;;;;;62.22;17.85;;;0.70;99.90;;;;;;5127519;28;20081;-80
2022/12/04 08:33:19;;;;;;;55.15;18.30;;;0.70;99.90;;;;;;5122315;28;20475;-82
2022/12/04 08:35:45;;;;;;;57.78;19.75;;;0.70;99.90;;;;;;5120706;28;20059;-81
2022/12/04 08:38:11;;;;;;;54.38;18.48;;;0.70;99.90;;;;;;5119456;28;20078;-78
2022/12/04 08:40:38;;;;;;;54.33;17.70;;;0.70;99.90;;;;;;5121714;28;20054;-81
2022/12/04 08:43:04;;;;;;;;;;;0.80;99.90;;;;;;5102656;28;20071;-80
2022/12/04 08:45:30;;;;;;;57.22;18.00;;;0.70;99.90;;;;;;5103774;28;19973;-78
2022/12/04 08:47:55;;;;;;;60.10;18.88;;;0.80;99.90;;;;;;5122990;28;20131;-80
2022/12/04 08:50:21;;;;;;;56.30;18.67;;;0.80;99.90;;;;;;5125086;28;20062;-78
2022/12/04 08:52:47;;;;;;;56.00;18.38;;;0.80;99.90;;;;;;5110566;28;20039;-78
2022/12/04 08:55:12;;;;;;;60.67;19.45;;;0.80;99.90;;;;;;5127060;28;20183;-80
2022/12/04 08:57:38;;;;;;;53.33;16.98;;;0.90;99.90;;;;;;5127533;28;20047;-77
2022/12/04 09:00:05;;;;;;;58.53;19.48;;;0.80;99.90;;;;;;5111509;28;20152;-79
2022/12/04 09:02:30;;;;;;;64.47;19.83;;;0.80;99.90;;;;;;5128939;28;20035;-79
2022/12/04 09:04:57;;;;;;;56.88;18.80;;;0.90;99.90;;;;;;5110097;28;20170;-81
2022/12/04 09:07:22;;;;;;;54.13;18.15;;;0.90;99.90;;;;;;5130806;28;20108;-78
2022/12/04 09:09:48;;;;;;;61.65;19.02;;;0.90;99.90;;;;;;5127740;28;20039;-79
2022/12/04 09:12:14;;;;;;;62.78;19.33;;;0.90;99.90;;;;;;5111111;28;20065;-78
2022/12/04 09:14:40;;;;;;;64.28;20.85;;;0.90;99.90;;;;;;5110235;28;20043;-79
2022/12/04 09:17:06;;;;;;;62.22;18.48;;;0.90;99.90;;;;;;5126443;28;20039;-78
2022/12/04 09:19:34;;;;;;;55.00;17.42;;;0.90;99.90;;;;;;5125779;28;20046;-78
2022/12/04 09:21:59;;;;;;;60.83;19.77;;;1.00;99.90;;;;;;5128196;28;20055;-80
2022/12/04 09:24:27;;;;;;;65.68;19.13;;;1.00;99.90;;;;;;5131074;28;20051;-80
2022/12/04 09:26:53;;;;;;;60.53;19.75;;;1.00;99.90;;;;;;5128430;28;20091;-82
2022/12/04 09:29:21;;;;;;;60.60;21.05;;;1.00;99.90;;;;;;5128631;28;20055;-81
2022/12/04 09:31:48;;;;;;;54.35;17.50;;;1.00;99.90;;;;;;5110134;28;20068;-81
2022/12/04 09:34:13;;;;;;;60.53;19.55;;;1.00;99.90;;;;;;5127701;28;20043;-80
2022/12/04 09:36:39;;;;;;;62.15;19.85;;;1.00;99.90;;;;;;5128341;28;20058;-83
2022/12/04 09:39:05;;;;;;;65.88;20.58;;;1.10;99.90;;;;;;5096795;28;20062;-82
2022/12/04 09:41:57;;;;;;;62.72;18.92;;;1.10;99.90;;;;;;5129548;28;20126;-79
2022/12/04 09:44:28;;;;;;;61.95;19.30;;;1.10;99.90;;;;;;5130504;28;20468;-81
2022/12/04 09:47:21;;;;;;;65.78;20.27;;;1.20;99.90;;;;;;5130191;28;20100;-79
2022/12/04 09:49:55;;;;;;;63.63;20.85;;;1.20;99.90;;;;;;5116058;28;20043;-80
2022/12/04 09:52:33;;;;;;;63.55;19.95;;;1.20;99.90;;;;;;5131762;28;20039;-83
2022/12/04 09:55:02;;;;;;;64.63;20.02;;;1.20;99.90;;;;;;5128553;28;20059;-80
2022/12/04 09:57:36;;;;;;;64.35;19.77;;;1.30;99.90;;;;;;5132341;27;20122;-79
2022/12/04 10:00:09;;;;;;;68.82;19.48;;;1.30;99.90;;;;;;5129712;27;20057;-80
2022/12/04 10:02:41;;;;;;;62.10;19.58;;;1.30;99.90;;;;;;5132204;27;20055;-80
2022/12/04 10:05:21;;;;;;;67.97;21.30;;;1.30;99.90;;;;;;5131938;27;20043;-79
2022/12/04 10:08:22;;;;;;;61.63;20.55;;;1.40;99.90;;;;;;5130965;27;20039;-80
2022/12/04 10:11:18;;;;;;;62.53;19.83;;;1.40;99.90;;;;;;5140202;27;20062;-80
2022/12/04 10:14:28;;;;;;;66.88;20.45;;;1.40;99.90;;;;;;5116898;27;20112;-78
2022/12/04 10:17:18;;;;;;;66.22;19.33;;;1.50;99.90;;;;;;5131530;27;20107;-77
2022/12/04 10:19:56;;;;;;;62.28;18.77;;;1.40;99.90;;;;;;5127206;27;20501;-80
2022/12/04 10:22:48;;;;;;;69.43;19.63;;;1.50;99.90;;;;;;5123850;27;20050;-79
2022/12/04 10:25:21;;;;;;;66.93;19.45;;;1.50;99.90;;;;;;5130043;27;20051;-82
2022/12/04 10:28:01;;;;;;;65.00;21.65;;;1.60;99.90;;;;;;5122985;27;20054;-77
2022/12/04 10:30:31;;;;;;;57.53;18.45;;;1.60;99.90;;;;;;5106926;27;20410;-79
2022/12/04 10:33:39;;;;;;;64.55;21.48;;;1.60;99.90;;;;;;5106542;27;20364;-77
2022/12/04 10:36:09;;;;;;;64.28;18.77;;;1.60;99.90;;;;;;5050044;27;20065;-81
2022/12/04 10:38:52;;;;;;;65.20;19.65;;;1.60;99.90;;;;;;5102330;27;20058;-81
2022/12/04 10:41:39;;;;;;;69.88;20.58;;;1.70;99.90;;;;;;5137198;27;20043;-81
2022/12/04 10:44:05;;;;;;;70.10;21.58;;;1.70;99.90;;;;;;5137953;27;20050;-81
2022/12/04 10:46:33;;;;;;;58.40;19.25;;;1.70;99.90;;;;;;5121006;27;20051;-77
2022/12/04 10:49:14;;;;;;;65.22;20.38;;;1.70;99.90;;;;;;5141574;27;20054;-80
2022/12/04 10:51:44;;;;;;;71.55;22.55;;;1.80;99.90;;;;;;5122752;27;20104;-78
2022/12/04 10:54:32;;;;;;;64.53;18.90;;;1.80;99.90;;;;;;5121749;27;20039;-79
2022/12/04 10:57:08;;;;;;;68.40;21.10;;;1.80;99.90;;;;;;5120802;27;20058;-79
2022/12/04 10:59:37;;;;;;;62.15;20.77;;;1.80;99.90;;;;;;5115666;28;20079;-78
2022/12/04 11:02:20;;;;;;;67.78;20.58;;;1.70;99.90;;;;;;5115699;28;20055;-80
2022/12/04 11:05:02;;;;;;;70.15;21.50;;;1.80;99.90;;;;;;5098652;28;20049;-79
2022/12/04 11:07:45;;;;;;;67.00;20.17;;;1.80;99.90;;;;;;5116516;28;20495;-78
2022/12/04 11:10:42;;;;;;;59.95;19.38;;;1.80;99.90;;;;;;5099080;28;20039;-80
2022/12/04 11:13:11;;;;;;;65.75;19.98;;;1.90;99.90;;;;;;5100865;28;20108;-80
2022/12/04 11:15:52;;;;;;;64.75;20.08;;;1.90;99.90;;;;;;5117762;28;20143;-79
2022/12/04 11:18:32;;;;;;;49.83;16.48;;;2.00;99.90;;;;;;5127324;28;20039;-77
2022/12/04 11:21:16;;;;;;;65.32;20.02;;;2.00;99.90;;;;;;5128541;28;20051;-78
2022/12/04 11:23:44;;;;;;;59.72;18.17;;;2.00;99.90;;;;;;5115867;28;20107;-82
2022/12/04 11:26:11;;;;;;;56.92;18.15;;;2.00;99.90;;;;;;5096598;28;20122;-78
2022/12/04 11:28:42;;;;;;;60.10;18.42;;;2.00;99.90;;;;;;5097280;28;20051;-77
2022/12/04 11:31:14;;;;;;;60.75;18.38;;;2.10;99.90;;;;;;5115796;28;20054;-81
2022/12/04 11:33:47;;;;;;;60.38;18.63;;;2.10;99.90;;;;;;5113450;28;20047;-78
2022/12/04 11:36:15;;;;;;;58.33;18.77;;;2.10;99.90;;;;;;5114922;28;20076;-78
2022/12/04 11:38:41;;;;;;;54.22;17.38;;;2.20;99.90;;;;;;5114407;28;20043;-78
2022/12/04 11:41:27;;;;;;;61.13;19.23;;;2.20;99.90;;;;;;5114331;28;20188;-77
2022/12/04 11:43:54;;;;;;;58.28;16.95;;;2.10;99.90;;;;;;5112985;28;20421;-78
2022/12/04 11:46:32;;;;;;;56.30;18.65;;;2.20;99.90;;;;;;5113926;28;20055;-77
2022/12/04 11:48:59;;;;;;;50.70;16.17;;;2.20;99.90;;;;;;5113988;28;20048;-79
2022/12/04 11:51:40;;;;;;;54.42;17.33;;;2.30;99.90;;;;;;5112473;28;20119;-78
2022/12/04 11:54:17;;;;;;;51.70;17.40;;;2.30;99.90;;;;;;5113103;28;20092;-79
2022/12/04 11:57:12;;;;;;;52.25;15.02;;;2.30;99.90;;;;;;5112697;28;20134;-77
2022/12/04 11:59:45;;;;;;;44.22;13.85;;;2.30;99.90;;;;;;5048174;28;20179;-76
2022/12/04 12:02:48;;;;;;;52.38;17.98;;;2.40;99.90;;;;;;5095095;28;20044;-80
2022/12/04 12:05:22;;;;;;;47.35;15.93;;;2.50;99.90;;;;;;5094141;28;20044;-76
2022/12/04 12:08:23;;;;;;;53.10;16.05;;;2.50;99.90;;;;;;5092041;28;20051;-77
2022/12/04 12:11:13;;;;;;;;;;;2.50;99.90;;;;;;5099571;28;20040;-79
2022/12/04 12:14:07;;;;;;;47.80;15.30;;;2.50;99.90;;;;;;5093730;28;19927;-78
2022/12/04 12:16:48;;;;;;;49.10;15.63;;;2.50;99.90;;;;;;5093519;28;20373;-77
2022/12/04 12:19:38;;;;;;;43.55;15.18;;;2.50;99.90;;;;;;5095164;28;20051;-77
2022/12/04 12:22:26;;;;;;;47.63;15.48;;;2.60;99.90;;;;;;5095792;28;20060;-79
2022/12/04 12:25:10;;;;;;;45.53;15.27;;;2.60;99.90;;;;;;5097950;28;20474;-77
2022/12/04 12:28:04;;;;;;;46.47;14.55;;;2.70;99.90;;;;;;5095244;28;20040;-74
2022/12/04 12:30:47;;;;;;;37.72;11.80;;;2.70;99.90;;;;;;5095044;28;20059;-78
2022/12/04 12:33:27;;;;;;;38.17;12.88;;;2.80;99.90;;;;;;5066083;28;20040;-76
2022/12/04 12:36:02;;;;;;;37.47;12.77;;;2.80;99.90;;;;;;5099878;28;20051;-78
2022/12/04 12:38:50;;;;;;;42.35;13.43;;;2.80;99.90;;;;;;5098202;28;20058;-76
2022/12/04 12:41:20;;;;;;;32.97;11.45;;;2.90;99.90;;;;;;5096233;28;20043;-75
2022/12/04 12:43:56;;;;;;;39.45;12.35;;;2.90;99.90;;;;;;5096790;28;20589;-76
2022/12/04 12:46:30;;;;;;;31.55;10.75;;;2.90;99.90;;;;;;5096420;28;20055;-73
2022/12/04 12:49:24;;;;;;;38.17;12.32;;;2.90;99.90;;;;;;5097698;28;20040;-77
2022/12/04 12:52:27;;;;;;;32.42;10.55;;;2.90;99.90;;;;;;5079524;28;20044;-75
2022/12/04 12:55:19;;;;;;;41.65;12.48;;;3.00;99.90;;;;;;5099340;28;20087;-76
2022/12/04 12:58:23;;;;;;;32.92;10.88;;;2.90;99.90;;;;;;5082302;27;20135;-75
2022/12/04 13:01:18;;;;;;;34.58;11.52;;;2.90;99.90;;;;;;5117548;27;20051;-75
2022/12/04 13:03:56;;;;;;;40.65;12.30;;;2.90;99.90;;;;;;5090148;27;20463;-76
2022/12/04 13:06:31;;;;;;;43.85;14.65;;;2.90;99.90;;;;;;5102908;27;20135;-78
2022/12/04 13:09:19;;;;;;;33.95;11.57;;;2.90;99.90;;;;;;5137594;27;20534;-76
2022/12/04 13:11:48;;;;;;;39.80;14.10;;;2.90;99.90;;;;;;5118806;27;20040;-80
2022/12/04 13:14:14;;;;;;;40.80;12.32;;;2.80;99.90;;;;;;5119507;27;20043;-78
2022/12/04 13:16:46;;;;;;;34.10;11.38;;;2.90;99.90;;;;;;5119910;27;20047;-76
2022/12/04 13:19:27;;;;;;;43.45;13.48;;;2.90;99.90;;;;;;5102908;27;20047;-77